GHC weather

Great Harbour Cay Airport
Bullocks Harbour, Nicholls Town and Berry Islands, Bahamas

Public forecast

Using degrees Celsius for public forecast. Weather courtesy of forecast.io.

Closest aviation weather report (METAR) to Great Harbour Cay Airport

Closest report is Lynden Pindling International Airport, 46.6 nm (86.4 km) SSE. Retrieved 2020/08/06 10:00 UTC (9 minutes ago):

MYNN 061000Z 13007KT 9999 FEW020 28/25 A3001

Closest aviation forecast (TAF) to Great Harbour Cay Airport

Forecast is more than 12 hours old.

Closest forecast is Lynden Pindling International Airport, 46.6 nm (86.4 km) SSE. Retrieved 2020/08/05 18:45 UTC (15 hours ago):

TAF MYNN 051625Z 0518/0618 16007KT 9999 VCSH FEW016CB BKN020